This is the latest recevied weather packets stored in our database for station/object VK5GR-12. If no packets are shown the sender has not sent any weather packets the latest 1 day(s).
| Time | Temp. | Humidity | Pressure | Rain* | Wind** | Luminosity | Snow |
|---|---|---|---|---|---|---|---|
| 1778107968 | 10.56° C | 77% | 1029.7 hPa | 0 mm | - | 89 W/m² | - |
| 1778107064 | 10° C | 82% | 1029.7 hPa | 0 mm | - | 49 W/m² | - |
| 1778102550 | 8.89° C | 84% | 1028.6 hPa | 0 mm | - | 2 W/m² | - |
| 1778101645 | 8.33° C | 85% | 1028.4 hPa | 0 mm | - | 0 W/m² | - |
| 1778100740 | 8.89° C | 84% | 1028.3 hPa | 0 mm | - | 0 W/m² | - |
| 1778098031 | 8.89° C | 82% | 1028 hPa | 0 mm | - | 0 W/m² | - |
| 1778095320 | 10° C | 78% | 1027.7 hPa | 0 mm | - | 0 W/m² | - |
| 1778093512 | 10.56° C | 74% | 1027.2 hPa | 0 mm | - | 0 W/m² | - |
| 1778088997 | 11.11° C | 70% | 1027 hPa | 0 mm | - | 0 W/m² | - |
| 1778088093 | 10.56° C | 70% | 1027.2 hPa | 0 mm | - | 0 W/m² | - |
| 1778081096 | 11.67° C | 64% | 1027 hPa | 0 mm | - | 0 W/m² | - |
| 1778070265 | 12.78° C | 71% | 1026 hPa | 0 mm | - | 0 W/m² | - |
| 1778069363 | 13.33° C | 70% | 1025.8 hPa | 0 mm | - | 0 W/m² | - |
| 1778068461 | 13.33° C | 71% | 1025.5 hPa | 0 mm | - | 0 W/m² | - |
| 1778063951 | 13.33° C | 81% | 1024.9 hPa | 0 mm | - | 0 W/m² | - |
| 1778061246 | 13.89° C | 83% | 1024.3 hPa | 0 mm | - | 0 W/m² | - |
| 1778057636 | 15° C | 82% | 1023.4 hPa | 0 mm | - | 0 W/m² | - |
| 1778056732 | 15° C | 81% | 1022.9 hPa | 0 mm | - | 0 W/m² | - |
| 1778055829 | 15.56° C | 79% | 1022.9 hPa | 0 mm | - | 0 W/m² | - |
| 1778054024 | 15.56° C | 74% | 1022.4 hPa | 0 mm | - | 4 W/m² | - |
| 1778053121 | 16.11° C | 72% | 1022.3 hPa | 0 mm | - | 13 W/m² | - |
| 1778051317 | 18.33° C | 64% | 1022.2 hPa | 0 mm | - | 47 W/m² | - |
| 1778050415 | 18.33° C | 68% | 1021.9 hPa | 0 mm | - | 82 W/m² | - |
| 1778049516 | 18.33° C | 69% | 1022 hPa | 0 mm | - | 66 W/m² | - |
| 1778047711 | 17.22° C | 74% | 1021.9 hPa | 0 mm | - | 51 W/m² | - |
* Rain latest hour (hover to see other rain measurements)
** Current wind speed in m/s (hover to see current wind gust speed)